Time;durP1;ratioP1;P1;durP2;ratioP2;P2;SDS_P1;SDS_P2;PMS_P1;PMS_P2;Temp;Humidity;BMP_temperature;BMP_pressure;BME280_temperature;BME280_humidity;BME280_pressure;Samples;Min_cycle;Max_cycle;Signal;HPM_P1;HPM_P2
2021/08/23 00:02:08;;;;;;;10.13;7.50;;;;;;;;;;5053619;28;20855;-72
2021/08/23 00:04:34;;;;;;;9.93;8.07;;;;;;;;;;5050297;28;20422;-73
2021/08/23 00:07:00;;;;;;;8.87;7.90;;;;;;;;;;5033502;28;20541;-73
2021/08/23 00:09:28;;;;;;;7.80;7.00;;;;;;;;;;5033186;28;20422;-73
2021/08/23 00:11:54;;;;;;;8.77;7.00;;;;;;;;;;5033623;28;20440;-73
2021/08/23 00:14:20;;;;;;;8.17;7.30;;;;;;;;;;5033240;28;20414;-73
2021/08/23 00:16:46;;;;;;;10.37;7.93;;;;;;;;;;5033079;28;20485;-73
2021/08/23 00:19:12;;;;;;;9.77;7.50;;;;;;;;;;5033883;28;20414;-73
2021/08/23 00:21:44;;;;;;;8.90;7.60;;;;;;;;;;5035657;28;20819;-73
2021/08/23 00:24:44;;;;;;;11.10;7.63;;;;;;;;;;5053641;28;20458;-73
2021/08/23 00:27:03;;;;;;;10.03;7.80;;;;;;;;;;5038235;28;20441;-73
2021/08/23 00:29:29;;;;;;;8.70;7.10;;;;;;;;;;5033853;28;20417;-73
2021/08/23 00:31:55;;;;;;;12.43;8.60;;;;;;;;;;5033568;28;20419;-75
2021/08/23 00:34:22;;;;;;;9.47;7.70;;;;;;;;;;5033627;28;20417;-74
2021/08/23 00:36:48;;;;;;;12.60;7.90;;;;;;;;;;5032754;28;20496;-74
2021/08/23 00:39:14;;;;;;;9.73;8.37;;;;;;;;;;5033387;28;20417;-73
2021/08/23 00:41:40;;;;;;;9.20;8.20;;;;;;;;;;5032967;28;20895;-73
2021/08/23 00:44:07;;;;;;;8.40;6.90;;;;;;;;;;5025308;28;20490;-74
2021/08/23 00:46:33;;;;;;;11.47;7.80;;;;;;;;;;5044913;28;20459;-73
2021/08/23 00:49:00;;;;;;;8.17;7.17;;;;;;;;;;5045509;28;20421;-73
2021/08/23 00:51:26;;;;;;;13.27;7.97;;;;;;;;;;5024472;28;20443;-74
2021/08/23 00:53:53;;;;;;;10.43;7.70;;;;;;;;;;5032618;28;20907;-75
2021/08/23 00:56:19;;;;;;;8.93;7.90;;;;;;;;;;5032630;28;20966;-74
2021/08/23 00:58:49;;;;;;;10.53;6.63;;;;;;;;;;5032043;28;20479;-75
2021/08/23 01:01:18;;;;;;;8.03;6.53;;;;;;;;;;5035303;28;20434;-75
2021/08/23 01:03:57;;;;;;;9.63;7.00;;;;;;;;;;5035946;28;20816;-74
2021/08/23 01:06:24;;;;;;;7.93;6.80;;;;;;;;;;5033950;28;20467;-73
2021/08/23 01:08:50;;;;;;;10.80;7.00;;;;;;;;;;5032662;28;20429;-75
2021/08/23 01:11:16;;;;;;;11.27;7.70;;;;;;;;;;5031535;28;20456;-75
2021/08/23 01:13:46;;;;;;;9.67;7.47;;;;;;;;;;5027306;28;20428;-74
2021/08/23 01:16:12;;;;;;;8.33;6.80;;;;;;;;;;5045158;28;20446;-73
2021/08/23 01:18:38;;;;;;;8.07;6.90;;;;;;;;;;5032323;28;20413;-72
2021/08/23 01:21:06;;;;;;;7.50;6.37;;;;;;;;;;5028039;28;20790;-74
2021/08/23 01:23:33;;;;;;;10.87;7.00;;;;;;;;;;5032802;28;20465;-76
2021/08/23 01:25:59;;;;;;;6.53;5.83;;;;;;;;;;5035433;28;20445;-73
2021/08/23 01:28:42;;;;;;;7.60;6.23;;;;;;;;;;5036154;28;20899;-74
2021/08/23 01:31:14;;;;;;;8.20;6.10;;;;;;;;;;5033689;28;20431;-72
2021/08/23 01:33:41;;;;;;;8.63;6.37;;;;;;;;;;5036865;28;20427;-76
2021/08/23 01:36:08;;;;;;;10.43;6.00;;;;;;;;;;5036335;28;20982;-73
2021/08/23 01:38:34;;;;;;;9.53;6.70;;;;;;;;;;5036213;28;20766;-74
2021/08/23 01:41:05;;;;;;;9.00;5.80;;;;;;;;;;5036204;28;20481;-74
2021/08/23 01:43:32;;;;;;;11.33;6.73;;;;;;;;;;5036669;28;20541;-74
2021/08/23 01:45:58;;;;;;;8.63;6.13;;;;;;;;;;5041325;28;20448;-75
2021/08/23 01:48:24;;;;;;;8.23;6.10;;;;;;;;;;5053944;28;20420;-74
2021/08/23 01:50:50;;;;;;;9.30;6.00;;;;;;;;;;5036052;28;20790;-75
2021/08/23 01:53:17;;;;;;;8.00;6.17;;;;;;;;;;5036399;28;20422;-73
2021/08/23 01:55:44;;;;;;;7.97;5.50;;;;;;;;;;5036135;28;20440;-75
2021/08/23 01:58:10;;;;;;;8.60;5.93;;;;;;;;;;5034614;28;20418;-75
2021/08/23 02:00:36;;;;;;;9.70;5.77;;;;;;;;;;5049746;28;20444;-73
2021/08/23 02:03:02;;;;;;;7.10;5.30;;;;;;;;;;5047032;28;20875;-75
2021/08/23 02:05:28;;;;;;;6.90;5.18;;;;;;;;;;5030655;28;20462;-74
2021/08/23 02:07:57;;;;;;;5.80;5.17;;;;;;;;;;5035400;28;20181;-74
2021/08/23 02:10:24;;;;;;;7.63;5.47;;;;;;;;;;5035824;28;20759;-74
2021/08/23 02:12:50;;;;;;;6.80;5.67;;;;;;;;;;5035294;28;20421;-74
2021/08/23 02:15:16;;;;;;;6.30;5.03;;;;;;;;;;5036875;28;20428;-75
2021/08/23 02:17:42;;;;;;;7.20;4.93;;;;;;;;;;5037794;28;20774;-74
2021/08/23 02:20:10;;;;;;;5.60;5.10;;;;;;;;;;5030340;28;20445;-74
2021/08/23 02:22:36;;;;;;;5.63;5.10;;;;;;;;;;5025673;28;20458;-73
2021/08/23 02:25:03;;;;;;;6.80;4.70;;;;;;;;;;5056196;28;20749;-74
2021/08/23 02:27:29;;;;;;;6.23;4.50;;;;;;;;;;5039479;28;20444;-74
2021/08/23 02:29:55;;;;;;;10.70;5.00;;;;;;;;;;5035837;28;20420;-73
2021/08/23 02:32:21;;;;;;;6.57;4.60;;;;;;;;;;5035334;28;20428;-73
2021/08/23 02:34:47;;;;;;;7.40;4.43;;;;;;;;;;5035475;28;20412;-74
2021/08/23 02:37:13;;;;;;;6.43;4.23;;;;;;;;;;5033999;28;20444;-74
2021/08/23 02:39:39;;;;;;;4.67;3.93;;;;;;;;;;5035614;28;20501;-74
2021/08/23 02:42:05;;;;;;;5.77;4.10;;;;;;;;;;5034915;28;20512;-74
2021/08/23 02:44:32;;;;;;;6.47;4.43;;;;;;;;;;5035251;28;20568;-73
2021/08/23 02:46:57;;;;;;;5.70;3.90;;;;;;;;;;5034604;28;20444;-74
2021/08/23 02:49:24;;;;;;;8.00;4.33;;;;;;;;;;5034961;28;20755;-74
2021/08/23 02:51:50;;;;;;;4.50;3.97;;;;;;;;;;5031532;28;20473;-74
2021/08/23 02:54:16;;;;;;;5.53;3.87;;;;;;;;;;5051660;28;20418;-74
2021/08/23 02:56:42;;;;;;;5.63;4.00;;;;;;;;;;5040847;28;20449;-74
2021/08/23 02:59:08;;;;;;;11.23;4.10;;;;;;;;;;5035566;28;20511;-73
2021/08/23 03:01:34;;;;;;;6.57;3.90;;;;;;;;;;5034804;28;20476;-73
2021/08/23 03:04:00;;;;;;;7.13;3.87;;;;;;;;;;5035127;28;20890;-73
2021/08/23 03:06:26;;;;;;;5.77;3.70;;;;;;;;;;5034601;28;20461;-73
2021/08/23 03:08:52;;;;;;;5.20;4.27;;;;;;;;;;5034282;28;20429;-73
2021/08/23 03:11:18;;;;;;;5.30;3.80;;;;;;;;;;5034813;28;20432;-72
2021/08/23 03:13:44;;;;;;;6.63;4.70;;;;;;;;;;5034514;28;20857;-73
2021/08/23 03:16:12;;;;;;;7.30;3.90;;;;;;;;;;5034872;28;20816;-72
2021/08/23 03:18:38;;;;;;;6.00;3.93;;;;;;;;;;5034136;28;20459;-74
2021/08/23 03:21:05;;;;;;;7.93;4.50;;;;;;;;;;5034866;28;20409;-73
2021/08/23 03:23:31;;;;;;;9.10;4.00;;;;;;;;;;5034260;28;20470;-73
2021/08/23 03:25:57;;;;;;;5.00;3.67;;;;;;;;;;5034345;28;20527;-72
2021/08/23 03:28:23;;;;;;;5.97;4.10;;;;;;;;;;5033768;28;20913;-73
2021/08/23 03:30:49;;;;;;;4.90;4.10;;;;;;;;;;5034387;28;20420;-74
2021/08/23 03:33:15;;;;;;;5.30;4.23;;;;;;;;;;5034223;28;20463;-72
2021/08/23 03:35:42;;;;;;;4.00;3.60;;;;;;;;;;5032895;28;20479;-72
2021/08/23 03:38:08;;;;;;;7.57;4.30;;;;;;;;;;5033642;28;20435;-73
2021/08/23 03:40:34;;;;;;;4.50;3.67;;;;;;;;;;5038238;28;20463;-73
2021/08/23 03:43:00;;;;;;;13.67;4.30;;;;;;;;;;5052394;28;20478;-73
2021/08/23 03:45:26;;;;;;;5.10;3.80;;;;;;;;;;5040159;28;20939;-72
2021/08/23 03:47:52;;;;;;;4.47;3.50;;;;;;;;;;5052720;28;20414;-73
2021/08/23 03:50:18;;;;;;;5.63;3.60;;;;;;;;;;5032079;28;20428;-73
2021/08/23 03:52:44;;;;;;;6.50;3.77;;;;;;;;;;5034230;28;20762;-73
2021/08/23 03:55:10;;;;;;;7.00;3.57;;;;;;;;;;5028625;28;20498;-73
2021/08/23 03:57:36;;;;;;;6.23;3.80;;;;;;;;;;5031875;28;20444;-74
2021/08/23 04:00:07;;;;;;;3.83;3.40;;;;;;;;;;5033772;28;20525;-73
2021/08/23 04:02:33;;;;;;;5.90;3.50;;;;;;;;;;5033396;28;20499;-73
2021/08/23 04:04:59;;;;;;;5.97;4.40;;;;;;;;;;5033635;28;20417;-72
2021/08/23 04:07:26;;;;;;;4.87;4.13;;;;;;;;;;5033082;28;20444;-72
2021/08/23 04:09:52;;;;;;;4.93;3.40;;;;;;;;;;5033498;28;20963;-74
2021/08/23 04:12:18;;;;;;;4.97;3.60;;;;;;;;;;5033740;28;20439;-73
2021/08/23 04:14:44;;;;;;;3.60;3.27;;;;;;;;;;5042557;28;20420;-73
2021/08/23 04:17:10;;;;;;;6.40;3.70;;;;;;;;;;5033026;28;20475;-73
2021/08/23 04:19:36;;;;;;;8.43;3.93;;;;;;;;;;5036152;28;20421;-74
2021/08/23 04:22:02;;;;;;;6.23;4.03;;;;;;;;;;5032066;28;20429;-73
2021/08/23 04:24:29;;;;;;;5.20;3.95;;;;;;;;;;5033219;28;20472;-73
2021/08/23 04:26:55;;;;;;;5.20;3.95;;;;;;;;;;5033109;28;20563;-74
2021/08/23 04:29:21;;;;;;;6.05;4.72;;;;;;;;;;5033424;28;20528;-74
2021/08/23 04:31:47;;;;;;;5.73;4.00;;;;;;;;;;5033680;28;20530;-73
2021/08/23 04:34:13;;;;;;;5.53;4.93;;;;;;;;;;5032870;28;20435;-73
2021/08/23 04:36:39;;;;;;;7.50;4.27;;;;;;;;;;5029795;28;20994;-73
2021/08/23 04:39:06;;;;;;;4.82;4.20;;;;;;;;;;5041717;28;20437;-74
2021/08/23 04:41:36;;;;;;;5.50;4.90;;;;;;;;;;5044817;28;20178;-73
2021/08/23 04:44:02;;;;;;;6.83;5.13;;;;;;;;;;5032939;28;20574;-72
2021/08/23 04:46:27;;;;;;;7.33;5.03;;;;;;;;;;5033288;28;20447;-73
2021/08/23 04:48:53;;;;;;;5.93;5.10;;;;;;;;;;5032244;28;20428;-74
2021/08/23 04:51:19;;;;;;;5.73;4.93;;;;;;;;;;5033274;28;20416;-73
2021/08/23 04:53:45;;;;;;;6.63;5.50;;;;;;;;;;5031032;28;20908;-73
2021/08/23 04:56:12;;;;;;;8.37;5.60;;;;;;;;;;5029700;28;20451;-73
2021/08/23 04:58:39;;;;;;;9.03;5.30;;;;;;;;;;5032322;28;20801;-74
2021/08/23 05:01:05;;;;;;;7.47;6.00;;;;;;;;;;5032975;28;20431;-75
2021/08/23 05:03:31;;;;;;;9.40;5.60;;;;;;;;;;5041738;28;20463;-73
2021/08/23 05:05:57;;;;;;;11.40;6.23;;;;;;;;;;5033073;28;20455;-73
2021/08/23 05:08:23;;;;;;;8.30;5.57;;;;;;;;;;5032274;28;20754;-74
2021/08/23 05:10:49;;;;;;;10.40;6.47;;;;;;;;;;5033091;28;20424;-74
2021/08/23 05:13:15;;;;;;;16.50;6.87;;;;;;;;;;5032578;28;20408;-73
2021/08/23 05:15:41;;;;;;;7.70;6.30;;;;;;;;;;5020732;28;20447;-73
2021/08/23 05:18:07;;;;;;;8.00;6.05;;;;;;;;;;5032274;28;20463;-72
2021/08/23 05:20:34;;;;;;;9.47;6.77;;;;;;;;;;5031701;28;20639;-74
2021/08/23 05:23:00;;;;;;;7.93;6.07;;;;;;;;;;5032695;28;20471;-74
2021/08/23 05:25:26;;;;;;;6.67;6.03;;;;;;;;;;5030135;28;20416;-74
2021/08/23 05:27:52;;;;;;;10.40;5.90;;;;;;;;;;5033306;28;20762;-74
2021/08/23 05:30:18;;;;;;;10.83;6.93;;;;;;;;;;5032343;28;20417;-74
2021/08/23 05:32:44;;;;;;;8.77;5.87;;;;;;;;;;5032676;28;20444;-74
2021/08/23 05:35:11;;;;;;;8.83;6.80;;;;;;;;;;5032543;28;20436;-75
2021/08/23 05:37:37;;;;;;;7.07;5.97;;;;;;;;;;5032070;28;20425;-74
2021/08/23 05:40:04;;;;;;;7.03;5.70;;;;;;;;;;5032764;28;20433;-75
2021/08/23 05:42:29;;;;;;;7.00;5.80;;;;;;;;;;5032500;28;20432;-74
2021/08/23 05:44:56;;;;;;;6.33;5.70;;;;;;;;;;5032107;28;20436;-74
2021/08/23 05:47:22;;;;;;;8.60;6.30;;;;;;;;;;5031427;28;20494;-74
2021/08/23 05:49:49;;;;;;;7.87;6.50;;;;;;;;;;5032458;28;20420;-72
2021/08/23 05:52:15;;;;;;;9.00;6.23;;;;;;;;;;5035622;28;20425;-74
2021/08/23 05:54:41;;;;;;;10.17;5.70;;;;;;;;;;5032566;28;20443;-73
2021/08/23 05:57:08;;;;;;;10.10;5.67;;;;;;;;;;5033580;28;20448;-74
2021/08/23 05:59:34;;;;;;;7.47;5.87;;;;;;;;;;5034992;28;20435;-73
2021/08/23 06:02:00;;;;;;;8.13;5.40;;;;;;;;;;5031079;28;20435;-73
2021/08/23 06:04:26;;;;;;;7.37;5.90;;;;;;;;;;5032420;28;20457;-74
2021/08/23 06:06:53;;;;;;;9.20;5.63;;;;;;;;;;5032774;28;20460;-74
2021/08/23 06:09:19;;;;;;;8.83;5.60;;;;;;;;;;5032337;28;20428;-74
2021/08/23 06:11:46;;;;;;;7.13;4.57;;;;;;;;;;5034851;28;20406;-74
2021/08/23 06:14:12;;;;;;;8.23;5.47;;;;;;;;;;5038244;28;20420;-73
2021/08/23 06:16:38;;;;;;;5.33;4.83;;;;;;;;;;5045915;28;20786;-72
2021/08/23 06:19:05;;;;;;;8.10;4.90;;;;;;;;;;5035313;28;20426;-74
2021/08/23 06:21:31;;;;;;;5.30;4.50;;;;;;;;;;5035905;28;20460;-74
2021/08/23 06:23:57;;;;;;;5.93;4.30;;;;;;;;;;5035483;28;20820;-73
2021/08/23 06:26:23;;;;;;;7.37;4.57;;;;;;;;;;5045659;28;20431;-76
2021/08/23 06:28:49;;;;;;;5.20;4.50;;;;;;;;;;5050573;28;20459;-73
2021/08/23 06:31:15;;;;;;;5.93;4.00;;;;;;;;;;5035310;28;20414;-74
2021/08/23 06:33:41;;;;;;;7.60;4.47;;;;;;;;;;5035510;28;20523;-74
2021/08/23 06:36:07;;;;;;;8.67;4.23;;;;;;;;;;5035300;28;20433;-75
2021/08/23 06:38:33;;;;;;;8.60;5.03;;;;;;;;;;5031624;28;20455;-74
2021/08/23 06:40:59;;;;;;;4.70;3.63;;;;;;;;;;5028087;28;20422;-72
2021/08/23 06:43:26;;;;;;;6.30;3.67;;;;;;;;;;5045749;28;20487;-73
2021/08/23 06:45:52;;;;;;;4.43;3.10;;;;;;;;;;5020297;28;21637;-73
2021/08/23 06:48:18;;;;;;;4.10;3.70;;;;;;;;;;5030075;28;20429;-74
2021/08/23 06:50:44;;;;;;;5.17;3.40;;;;;;;;;;5033232;28;20424;-73
2021/08/23 06:53:10;;;;;;;3.60;3.20;;;;;;;;;;5037020;28;21308;-73
2021/08/23 06:55:36;;;;;;;4.80;4.23;;;;;;;;;;5041796;28;20452;-73
2021/08/23 06:58:02;;;;;;;5.10;3.23;;;;;;;;;;5025479;28;20477;-73
2021/08/23 07:00:28;;;;;;;7.70;3.50;;;;;;;;;;5017818;28;20524;-73
2021/08/23 07:02:55;;;;;;;4.37;3.13;;;;;;;;;;5038998;28;20478;-74
2021/08/23 07:05:22;;;;;;;4.37;2.93;;;;;;;;;;5029409;28;20996;-74
2021/08/23 07:07:48;;;;;;;4.77;3.10;;;;;;;;;;5029057;28;20435;-74
2021/08/23 07:10:14;;;;;;;3.43;2.70;;;;;;;;;;5022129;28;20820;-74
2021/08/23 07:12:41;;;;;;;5.57;3.33;;;;;;;;;;5031023;28;20959;-74
2021/08/23 07:15:07;;;;;;;2.90;2.60;;;;;;;;;;5030613;28;20510;-74
2021/08/23 07:17:33;;;;;;;4.33;2.63;;;;;;;;;;5027439;28;20456;-74
2021/08/23 07:19:59;;;;;;;5.10;3.10;;;;;;;;;;5031054;28;20419;-74
2021/08/23 07:22:25;;;;;;;4.40;2.50;;;;;;;;;;5023891;28;20435;-73
2021/08/23 07:24:51;;;;;;;4.60;2.60;;;;;;;;;;5022279;28;20426;-73
2021/08/23 07:27:17;;;;;;;4.20;2.50;;;;;;;;;;5047601;28;20484;-75
2021/08/23 07:29:43;;;;;;;4.40;2.40;;;;;;;;;;5021949;28;20417;-73
2021/08/23 07:32:10;;;;;;;4.20;2.73;;;;;;;;;;5029835;28;20432;-74
2021/08/23 07:34:36;;;;;;;6.97;3.20;;;;;;;;;;5039920;28;20472;-73
2021/08/23 07:37:02;;;;;;;4.53;2.57;;;;;;;;;;5030722;28;20459;-74
2021/08/23 07:39:28;;;;;;;4.30;2.80;;;;;;;;;;5019770;28;20435;-73
2021/08/23 07:41:54;;;;;;;4.07;2.40;;;;;;;;;;5029984;28;20515;-75
2021/08/23 07:44:20;;;;;;;3.03;2.30;;;;;;;;;;5030275;28;20464;-73
2021/08/23 07:46:46;;;;;;;4.70;2.60;;;;;;;;;;5030038;28;20446;-75
2021/08/23 07:49:12;;;;;;;8.00;4.40;;;;;;;;;;5027881;28;20462;-75
2021/08/23 07:51:38;;;;;;;4.63;4.20;;;;;;;;;;5030629;28;20420;-74
2021/08/23 07:54:04;;;;;;;3.20;2.90;;;;;;;;;;5030241;28;20494;-75
2021/08/23 07:56:30;;;;;;;3.43;2.63;;;;;;;;;;5029385;28;20506;-73
2021/08/23 07:58:59;;;;;;;3.03;2.27;;;;;;;;;;5026678;28;20435;-75
2021/08/23 08:01:25;;;;;;;5.07;2.40;;;;;;;;;;5038980;28;20806;-74
2021/08/23 08:03:52;;;;;;;3.60;2.13;;;;;;;;;;5024223;28;20866;-74
2021/08/23 08:06:18;;;;;;;4.03;2.03;;;;;;;;;;5024550;28;20492;-74
2021/08/23 08:08:44;;;;;;;3.00;2.20;;;;;;;;;;5027014;28;20416;-74
2021/08/23 08:11:10;;;;;;;5.27;2.17;;;;;;;;;;5028550;28;20432;-75
2021/08/23 08:13:36;;;;;;;3.20;2.17;;;;;;;;;;5029571;28;20424;-74
2021/08/23 08:16:02;;;;;;;3.10;2.30;;;;;;;;;;5029430;28;20511;-73
2021/08/23 08:18:28;;;;;;;7.17;2.13;;;;;;;;;;5037149;28;20463;-73
2021/08/23 08:20:54;;;;;;;3.03;2.00;;;;;;;;;;5041294;28;20540;-75
2021/08/23 08:23:21;;;;;;;3.20;2.20;;;;;;;;;;5049936;28;20542;-74
2021/08/23 08:25:47;;;;;;;3.50;2.10;;;;;;;;;;5042970;28;20449;-74
2021/08/23 08:28:13;;;;;;;2.83;1.80;;;;;;;;;;5035201;28;20430;-74
2021/08/23 08:30:39;;;;;;;2.43;1.80;;;;;;;;;;5029659;28;20424;-74
2021/08/23 08:33:05;;;;;;;2.97;2.40;;;;;;;;;;5037678;28;20475;-73
2021/08/23 08:35:32;;;;;;;3.30;1.93;;;;;;;;;;5030117;28;20505;-74
2021/08/23 08:37:58;;;;;;;3.37;1.67;;;;;;;;;;5029261;28;20424;-74
2021/08/23 08:40:24;;;;;;;2.50;1.63;;;;;;;;;;5029210;28;20904;-73
2021/08/23 08:42:51;;;;;;;2.50;1.83;;;;;;;;;;5028190;28;20802;-74
2021/08/23 08:45:17;;;;;;;2.80;1.73;;;;;;;;;;5024849;28;20828;-74
2021/08/23 08:47:44;;;;;;;3.33;2.00;;;;;;;;;;5030216;28;20460;-73
2021/08/23 08:50:13;;;;;;;2.37;1.50;;;;;;;;;;5029680;28;20409;-74
2021/08/23 08:52:39;;;;;;;2.30;1.73;;;;;;;;;;5031579;28;20514;-74
2021/08/23 08:55:05;;;;;;;2.33;1.60;;;;;;;;;;5038506;28;20489;-75
2021/08/23 08:57:32;;;;;;;2.50;1.80;;;;;;;;;;5029568;28;20447;-73
2021/08/23 08:59:58;;;;;;;2.77;1.70;;;;;;;;;;5037573;28;20424;-74
2021/08/23 09:02:24;;;;;;;3.00;1.80;;;;;;;;;;5029220;28;20415;-73
2021/08/23 09:04:50;;;;;;;2.67;1.70;;;;;;;;;;5029312;28;20429;-72
2021/08/23 09:07:16;;;;;;;2.30;1.80;;;;;;;;;;5028707;28;20471;-73
2021/08/23 09:09:42;;;;;;;3.27;1.40;;;;;;;;;;5030285;28;20832;-74
2021/08/23 09:12:08;;;;;;;2.30;1.70;;;;;;;;;;5029713;28;20874;-73
2021/08/23 09:14:37;;;;;;;2.53;1.67;;;;;;;;;;5025009;28;20475;-73
2021/08/23 09:17:04;;;;;;;2.63;1.97;;;;;;;;;;5027767;28;20811;-73
2021/08/23 09:19:34;;;;;;;3.27;2.07;;;;;;;;;;5022674;28;20433;-73
2021/08/23 09:22:01;;;;;;;3.93;2.47;;;;;;;;;;5027380;28;20433;-73
2021/08/23 09:24:31;;;;;;;3.60;3.30;;;;;;;;;;5024129;28;20529;-74
2021/08/23 09:27:06;;;;;;;6.97;3.00;;;;;;;;;;5028466;28;20476;-72
2021/08/23 09:29:55;;;;;;;2.87;1.83;;;;;;;;;;5027756;28;20780;-74
2021/08/23 09:32:25;;;;;;;2.80;1.80;;;;;;;;;;5015519;28;20487;-74
2021/08/23 09:34:51;;;;;;;2.93;2.17;;;;;;;;;;5022295;28;20802;-73
2021/08/23 09:37:22;;;;;;;4.67;2.17;;;;;;;;;;5027856;28;20448;-74
2021/08/23 09:39:48;;;;;;;2.33;1.77;;;;;;;;;;5035520;28;20443;-75
2021/08/23 09:42:15;;;;;;;3.60;2.00;;;;;;;;;;5023308;28;20428;-74
2021/08/23 09:44:42;;;;;;;3.50;2.27;;;;;;;;;;5028716;28;20539;-75
2021/08/23 09:47:08;;;;;;;2.70;2.00;;;;;;;;;;5031730;28;20790;-73
2021/08/23 09:49:38;;;;;;;2.80;2.10;;;;;;;;;;5021640;28;20852;-74
2021/08/23 09:52:05;;;;;;;3.10;1.90;;;;;;;;;;5032477;28;20420;-76
2021/08/23 09:54:31;;;;;;;3.10;2.07;;;;;;;;;;5030490;28;20417;-72
2021/08/23 09:56:57;;;;;;;3.90;2.00;;;;;;;;;;5029099;28;20441;-73
2021/08/23 09:59:25;;;;;;;3.47;2.17;;;;;;;;;;5031159;28;20424;-74
2021/08/23 10:01:52;;;;;;;3.00;1.90;;;;;;;;;;5031478;28;20420;-73
2021/08/23 10:04:19;;;;;;;4.63;1.93;;;;;;;;;;5051011;28;20463;-72
2021/08/23 10:06:46;;;;;;;2.77;1.70;;;;;;;;;;5049443;28;20458;-72
2021/08/23 10:09:19;;;;;;;2.63;1.90;;;;;;;;;;5032260;28;20417;-72
2021/08/23 10:11:48;;;;;;;3.60;3.30;;;;;;;;;;5033769;28;20448;-74
2021/08/23 10:14:15;;;;;;;2.73;2.27;;;;;;;;;;5040647;28;20431;-73
2021/08/23 10:16:41;;;;;;;2.53;1.93;;;;;;;;;;5043696;28;20436;-74
2021/08/23 10:19:09;;;;;;;2.37;2.17;;;;;;;;;;5038109;28;21040;-70
2021/08/23 10:21:36;;;;;;;2.30;1.80;;;;;;;;;;5032145;28;20471;-74
2021/08/23 10:24:03;;;;;;;3.53;2.00;;;;;;;;;;5031921;28;20464;-73
2021/08/23 10:26:37;;;;;;;2.63;2.10;;;;;;;;;;5032135;28;20440;-73
2021/08/23 10:29:07;;;;;;;2.43;1.70;;;;;;;;;;5032376;28;20789;-73
2021/08/23 10:31:35;;;;;;;2.40;1.93;;;;;;;;;;5032156;28;20405;-74
2021/08/23 10:34:10;;;;;;;2.50;1.77;;;;;;;;;;5031775;28;20424;-73
2021/08/23 10:36:36;;;;;;;2.20;1.97;;;;;;;;;;5031150;28;20468;-73
2021/08/23 10:39:03;;;;;;;2.50;2.00;;;;;;;;;;5038500;28;20426;-72
2021/08/23 10:41:29;;;;;;;2.30;1.80;;;;;;;;;;5040675;28;20437;-73
2021/08/23 10:43:57;;;;;;;2.40;1.83;;;;;;;;;;5031693;28;20477;-71
2021/08/23 10:46:24;;;;;;;2.60;1.77;;;;;;;;;;5029600;28;20463;-73
2021/08/23 10:48:51;;;;;;;2.40;1.77;;;;;;;;;;5031064;28;21002;-74
2021/08/23 10:51:34;;;;;;;2.57;1.90;;;;;;;;;;5031222;28;20454;-73
2021/08/23 10:54:00;;;;;;;2.50;2.10;;;;;;;;;;5031523;28;20507;-73
2021/08/23 10:56:37;;;;;;;2.53;2.10;;;;;;;;;;5031048;28;20522;-73
2021/08/23 10:59:14;;;;;;;2.70;2.03;;;;;;;;;;5030891;28;20424;-74
2021/08/23 11:01:40;;;;;;;2.10;1.63;;;;;;;;;;5028602;28;20432;-74
2021/08/23 11:04:07;;;;;;;3.67;1.70;;;;;;;;;;5030863;28;20468;-73
2021/08/23 11:06:33;;;;;;;3.80;1.80;;;;;;;;;;5028886;28;20471;-70
2021/08/23 11:09:10;;;;;;;2.63;1.80;;;;;;;;;;5031305;28;20898;-71
2021/08/23 11:11:37;;;;;;;2.20;1.70;;;;;;;;;;5031303;28;20412;-73
2021/08/23 11:14:03;;;;;;;2.20;1.87;;;;;;;;;;5029805;28;20433;-72
2021/08/23 11:16:31;;;;;;;4.90;1.87;;;;;;;;;;5031065;28;20472;-71
2021/08/23 11:19:03;;;;;;;2.23;1.80;;;;;;;;;;5029450;28;20428;-69
2021/08/23 11:21:30;;;;;;;2.30;1.90;;;;;;;;;;5031201;28;20420;-70
2021/08/23 11:24:04;;;;;;;2.93;1.80;;;;;;;;;;5030920;28;20572;-71
2021/08/23 11:26:30;;;;;;;2.30;1.90;;;;;;;;;;5033326;28;20867;-69
2021/08/23 11:29:06;;;;;;;2.40;1.90;;;;;;;;;;5043651;28;20421;-70
2021/08/23 11:31:32;;;;;;;2.40;1.70;;;;;;;;;;5030743;28;20929;-72
2021/08/23 11:34:02;;;;;;;2.93;1.97;;;;;;;;;;5032271;28;20464;-72
2021/08/23 11:36:29;;;;;;;2.80;1.97;;;;;;;;;;5028287;28;20547;-73
2021/08/23 11:38:54;;;;;;;2.87;1.97;;;;;;;;;;5030165;28;20423;-73
2021/08/23 11:41:21;;;;;;;2.20;1.63;;;;;;;;;;5025234;28;20432;-71
2021/08/23 11:43:47;;;;;;;2.47;1.90;;;;;;;;;;5030023;28;20460;-72
2021/08/23 11:46:13;;;;;;;2.23;1.57;;;;;;;;;;5026269;28;20507;-72
2021/08/23 11:48:39;;;;;;;2.50;1.60;;;;;;;;;;5021035;28;20457;-72
2021/08/23 11:51:05;;;;;;;2.07;1.70;;;;;;;;;;5029656;28;20419;-72
2021/08/23 11:53:31;;;;;;;3.30;1.50;;;;;;;;;;5025832;28;20428;-71
2021/08/23 11:56:08;;;;;;;2.10;1.70;;;;;;;;;;5031300;28;20444;-72
2021/08/23 11:58:38;;;;;;;2.30;1.70;;;;;;;;;;5030120;28;20420;-70
2021/08/23 12:01:05;;;;;;;2.30;1.77;;;;;;;;;;5029832;28;20918;-71
2021/08/23 12:03:31;;;;;;;2.20;1.50;;;;;;;;;;5030149;28;20966;-73
2021/08/23 12:06:04;;;;;;;2.20;1.70;;;;;;;;;;5029807;28;20960;-70
2021/08/23 12:08:32;;;;;;;2.27;1.70;;;;;;;;;;5028333;28;20913;-70
2021/08/23 12:10:59;;;;;;;2.43;1.70;;;;;;;;;;5029918;28;20416;-72
2021/08/23 12:13:36;;;;;;;2.20;1.53;;;;;;;;;;5029474;28;20435;-72
2021/08/23 12:16:06;;;;;;;2.40;1.50;;;;;;;;;;5029935;28;20518;-71
2021/08/23 12:18:32;;;;;;;2.10;1.70;;;;;;;;;;5021426;28;20968;-69
2021/08/23 12:21:09;;;;;;;2.30;1.40;;;;;;;;;;5049875;28;20920;-70
2021/08/23 12:23:50;;;;;;;2.00;1.30;;;;;;;;;;5029789;28;20527;-71
2021/08/23 12:26:17;;;;;;;2.13;1.70;;;;;;;;;;5049502;28;20435;-70
2021/08/23 12:28:58;;;;;;;2.00;1.40;;;;;;;;;;5033087;28;20432;-70
2021/08/23 12:31:24;;;;;;;2.10;1.67;;;;;;;;;;5029603;28;20404;-70
2021/08/23 12:33:50;;;;;;;2.60;1.87;;;;;;;;;;5027998;28;20460;-71
2021/08/23 12:36:16;;;;;;;2.13;1.57;;;;;;;;;;5029242;28;20457;-71
2021/08/23 12:38:44;;;;;;;2.00;1.43;;;;;;;;;;5029268;28;20451;-71
2021/08/23 12:41:10;;;;;;;2.47;1.40;;;;;;;;;;5029205;28;20432;-69
2021/08/23 12:43:37;;;;;;;2.10;1.50;;;;;;;;;;5029469;28;20459;-71
2021/08/23 12:46:03;;;;;;;1.90;1.50;;;;;;;;;;5028782;28;20452;-72
2021/08/23 12:48:29;;;;;;;2.00;1.50;;;;;;;;;;5028881;28;21063;-70
2021/08/23 12:50:57;;;;;;;2.13;1.67;;;;;;;;;;5027866;28;20461;-70
2021/08/23 12:53:23;;;;;;;2.10;1.60;;;;;;;;;;5039076;28;20424;-72
2021/08/23 12:55:49;;;;;;;3.60;1.90;;;;;;;;;;5039897;28;20518;-72
2021/08/23 12:58:15;;;;;;;2.30;1.60;;;;;;;;;;5028331;28;20500;-71
2021/08/23 13:00:41;;;;;;;2.20;1.80;;;;;;;;;;5047618;28;20488;-72
2021/08/23 13:03:06;;;;;;;2.20;1.83;;;;;;;;;;5049238;28;20899;-69
2021/08/23 13:05:33;;;;;;;2.00;1.37;;;;;;;;;;5033246;28;20456;-70
2021/08/23 13:07:59;;;;;;;2.93;1.53;;;;;;;;;;5029366;28;20428;-73
2021/08/23 13:10:25;;;;;;;2.00;1.40;;;;;;;;;;5025275;28;20563;-72
2021/08/23 13:12:51;;;;;;;2.03;1.60;;;;;;;;;;5029362;28;20520;-71
2021/08/23 13:15:19;;;;;;;1.93;1.40;;;;;;;;;;5028859;28;20537;-70
2021/08/23 13:17:45;;;;;;;2.40;1.53;;;;;;;;;;5028898;28;20415;-74
2021/08/23 13:20:11;;;;;;;3.23;1.70;;;;;;;;;;5023969;28;20429;-70
2021/08/23 13:22:37;;;;;;;2.13;1.50;;;;;;;;;;5053274;28;20476;-71
2021/08/23 13:25:03;;;;;;;2.23;1.60;;;;;;;;;;5029548;28;20933;-74
2021/08/23 13:27:29;;;;;;;2.17;1.50;;;;;;;;;;5052712;28;21151;-73
2021/08/23 13:29:55;;;;;;;2.70;1.77;;;;;;;;;;5032890;28;21030;-72
2021/08/23 13:32:21;;;;;;;2.43;1.63;;;;;;;;;;5032844;28;20427;-71
2021/08/23 13:34:47;;;;;;;2.80;1.83;;;;;;;;;;5032898;28;20443;-73
2021/08/23 13:37:13;;;;;;;3.10;1.73;;;;;;;;;;5028344;28;20456;-72
2021/08/23 13:39:39;;;;;;;2.70;2.10;;;;;;;;;;5032471;28;20444;-70
2021/08/23 13:42:05;;;;;;;2.83;2.20;;;;;;;;;;5042499;28;20427;-74
2021/08/23 13:44:31;;;;;;;3.50;1.67;;;;;;;;;;5040818;28;20825;-73
2021/08/23 13:46:57;;;;;;;3.00;1.90;;;;;;;;;;5032046;28;20436;-70
2021/08/23 13:49:23;;;;;;;3.47;2.33;;;;;;;;;;5023308;28;21113;-70
2021/08/23 13:51:49;;;;;;;2.33;1.70;;;;;;;;;;5045011;28;20665;-72
2021/08/23 13:54:16;;;;;;;2.20;1.70;;;;;;;;;;5020028;28;20419;-70
2021/08/23 13:56:42;;;;;;;5.30;2.03;;;;;;;;;;5031897;28;20436;-71
2021/08/23 13:59:08;;;;;;;2.47;2.00;;;;;;;;;;5028507;28;20470;-72
2021/08/23 14:01:35;;;;;;;2.90;2.03;;;;;;;;;;5052253;28;20480;-71
2021/08/23 14:04:01;;;;;;;2.30;1.63;;;;;;;;;;5032777;28;20871;-71
2021/08/23 14:06:27;;;;;;;2.83;1.60;;;;;;;;;;5051867;28;20509;-72
2021/08/23 14:08:53;;;;;;;3.47;1.93;;;;;;;;;;5035470;28;20423;-71
2021/08/23 14:11:19;;;;;;;2.10;1.70;;;;;;;;;;5046096;28;20471;-73
2021/08/23 14:13:47;;;;;;;2.20;1.70;;;;;;;;;;5028933;28;20941;-72
2021/08/23 14:16:13;;;;;;;2.27;1.70;;;;;;;;;;5026905;28;20451;-69
2021/08/23 14:18:39;;;;;;;2.87;2.07;;;;;;;;;;5026437;28;20471;-71
2021/08/23 14:21:06;;;;;;;2.97;1.90;;;;;;;;;;5027740;28;20530;-69
2021/08/23 14:23:32;;;;;;;4.10;3.40;;;;;;;;;;5036193;28;20466;-71
2021/08/23 14:25:58;;;;;;;3.93;2.37;;;;;;;;;;5042111;28;20448;-73
2021/08/23 14:28:24;;;;;;;2.30;1.80;;;;;;;;;;5029522;28;20424;-74
2021/08/23 14:30:50;;;;;;;4.77;3.03;;;;;;;;;;5031917;28;20890;-71
2021/08/23 14:33:16;;;;;;;3.70;1.90;;;;;;;;;;5031451;28;20836;-70
2021/08/23 14:35:42;;;;;;;4.00;3.30;;;;;;;;;;5031779;28;20443;-71
2021/08/23 14:38:08;;;;;;;3.47;1.90;;;;;;;;;;5025316;28;20531;-71
2021/08/23 14:40:34;;;;;;;2.13;1.57;;;;;;;;;;5028330;28;20903;-71
2021/08/23 14:43:00;;;;;;;2.20;1.67;;;;;;;;;;5034113;28;20474;-71